createdAt,value
2016-10-09T00:28:55.201Z,21.2
2016-10-09T00:30:05.627Z,21.19
2016-10-09T00:31:15.952Z,21.23
2016-10-09T01:28:53.728Z,21.04
2016-10-09T01:30:04.071Z,21.07
2016-10-09T01:31:14.414Z,21.03
2016-10-09T01:32:24.767Z,21.05
2016-10-09T01:33:35.115Z,21.04
2016-10-09T01:34:45.458Z,21.01
2016-10-09T01:35:55.813Z,21
2016-10-09T01:37:06.176Z,21.07
2016-10-09T01:38:16.530Z,21.03
2016-10-09T01:39:26.882Z,21.01
2016-10-09T01:40:37.233Z,21.04
2016-10-09T01:41:47.589Z,21
2016-10-09T01:42:57.937Z,21
2016-10-09T01:44:08.292Z,21.01
2016-10-09T01:45:18.649Z,20.96
2016-10-09T01:46:29.008Z,21
2016-10-09T01:47:39.363Z,20.96
2016-10-09T01:48:49.714Z,20.96
2016-10-09T01:50:00.061Z,21
2016-10-09T01:51:10.415Z,21.04
2016-10-09T01:52:20.774Z,21.04
2016-10-09T01:53:31.128Z,21.03
2016-10-09T01:54:41.485Z,21
2016-10-09T01:55:51.833Z,21.03
2016-10-09T01:57:02.189Z,20.98
2016-10-09T01:58:12.551Z,21.07
2016-10-09T01:59:22.897Z,20.98
2016-10-09T02:00:33.239Z,20.95
2016-10-09T02:01:43.595Z,20.96
2016-10-09T02:02:53.948Z,20.89
2016-10-09T02:04:04.303Z,20.9
2016-10-09T02:28:43.037Z,21.01
2016-10-09T02:29:53.377Z,21.03
2016-10-09T02:31:03.726Z,21
2016-10-09T02:32:14.075Z,20.96
2016-10-09T02:33:24.421Z,20.95
2016-10-09T02:34:34.773Z,20.95
2016-10-09T02:35:45.123Z,20.96
2016-10-09T02:36:55.477Z,20.96
2016-10-09T02:38:05.824Z,21.01
2016-10-09T02:39:16.178Z,20.93
2016-10-09T03:28:53.253Z,20.82
2016-10-09T03:30:03.603Z,20.78
2016-10-09T04:29:03.484Z,21.05
2016-10-09T04:30:13.861Z,21.08
2016-10-09T05:28:34.987Z,21.07
2016-10-09T05:29:45.336Z,21.04
2016-10-09T05:30:55.686Z,21.01
2016-10-09T05:32:06.032Z,21.11
2016-10-09T05:33:16.382Z,21.1
2016-10-09T05:34:26.730Z,21.08
2016-10-09T05:35:37.080Z,21.01
2016-10-09T05:36:47.435Z,21.13
2016-10-09T05:37:57.783Z,21.11
2016-10-09T05:39:08.134Z,21.01
2016-10-09T05:40:18.487Z,21.08
2016-10-09T05:41:28.842Z,21.07
2016-10-09T05:42:39.194Z,21.04
2016-10-09T05:43:49.548Z,21.07
2016-10-09T06:28:29.831Z,21.14
2016-10-09T06:29:40.219Z,21.13
2016-10-09T06:30:50.562Z,21.13
2016-10-09T06:32:00.910Z,21.13
2016-10-09T06:33:11.255Z,21.14
2016-10-09T06:34:21.598Z,21.1
2016-10-09T06:35:31.958Z,21.1
2016-10-09T06:36:42.300Z,21.11
2016-10-09T06:37:52.665Z,20.32
2016-10-09T06:39:03.023Z,20.32
2016-10-09T07:28:24.730Z,20.83
2016-10-09T07:29:35.038Z,20.88
2016-10-09T07:30:45.383Z,20.86
2016-10-09T07:31:55.734Z,20.92
2016-10-09T07:33:06.079Z,20.86
2016-10-09T08:28:17.668Z,21.17
2016-10-09T08:29:28.055Z,21.22
2016-10-09T08:30:38.404Z,21.25
2016-10-09T08:31:48.753Z,21.25
2016-10-09T08:32:59.091Z,21.26
2016-10-09T08:34:09.445Z,21.23
2016-10-09T08:35:19.795Z,21.25
2016-10-09T08:36:30.144Z,21.22
2016-10-09T08:37:40.494Z,20.15
2016-10-09T09:28:13.866Z,21.35
2016-10-09T10:26:54.908Z,21.03
2016-10-09T10:28:05.194Z,21.05
2016-10-09T10:29:15.546Z,21.14
2016-10-09T10:30:25.882Z,21.15
2016-10-09T10:31:36.234Z,21.19
2016-10-09T10:41:35.615Z,21.17
2016-10-09T10:42:45.999Z,21.25
2016-10-09T10:43:56.317Z,21.25
2016-10-09T10:45:06.672Z,21.3
2016-10-09T10:46:17.022Z,21.04
2016-10-09T10:47:27.374Z,21.04
2016-10-09T11:28:09.641Z,20.88
2016-10-09T11:29:19.993Z,20.98
2016-10-09T11:30:30.227Z,21.01
2016-10-09T12:28:34.618Z,21.29
2016-10-09T12:29:44.957Z,21.22
2016-10-09T12:30:55.316Z,21.26
2016-10-09T13:28:35.300Z,21.32
2016-10-09T13:29:45.648Z,21.33
2016-10-09T13:30:55.996Z,21.29
2016-10-09T13:32:06.335Z,21.33
2016-10-09T13:33:16.685Z,21.23
2016-10-09T14:28:32.647Z,21.32
2016-10-09T14:29:43.001Z,21.28
2016-10-09T15:28:25.959Z,21.33
2016-10-09T15:29:36.285Z,21.35
2016-10-09T15:30:46.636Z,21.25
2016-10-09T15:31:56.980Z,21.29
2016-10-09T15:33:07.333Z,21.28
2016-10-09T15:34:17.683Z,21.3
2016-10-09T15:35:28.037Z,21.35
2016-10-09T15:36:38.385Z,21.26
2016-10-09T15:37:48.739Z,21.26
2016-10-09T15:38:59.093Z,21.29
2016-10-09T15:40:09.451Z,21.32
2016-10-09T16:28:30.634Z,21.23
2016-10-09T16:29:40.996Z,21.28
2016-10-09T16:30:51.350Z,21.26
2016-10-09T17:28:27.274Z,20.83
2016-10-09T18:28:52.601Z,21.5
2016-10-09T19:29:00.975Z,21.65
2016-10-09T20:29:05.641Z,21.78
2016-10-09T20:30:16.043Z,21.77
2016-10-09T21:29:04.837Z,21.66
2016-10-09T21:30:16.076Z,21.65
2016-10-09T21:31:26.473Z,21.63
2016-10-09T21:32:36.868Z,21.66
2016-10-09T21:33:47.263Z,21.59
2016-10-09T22:29:00.658Z,21.4
2016-10-09T22:30:11.055Z,21.44
2016-10-09T22:31:21.456Z,21.41
2016-10-09T22:32:31.854Z,21.41
2016-10-09T22:33:42.249Z,21.3
2016-10-09T22:34:52.639Z,21.26
2016-10-09T22:36:02.988Z,21.28
2016-10-09T22:37:13.345Z,21.33
2016-10-09T22:38:23.699Z,21.28
2016-10-09T22:39:34.049Z,21.28
2016-10-09T23:28:48.078Z,21.19
2016-10-09T23:29:58.472Z,21.15
2016-10-09T23:31:08.851Z,21.1
2016-10-09T23:32:19.243Z,21.19
2016-10-09T23:33:29.616Z,21.14
